MSC Bari — A8YD3 — position and weather

sailwx.info

Track history (hours):
 
Tides and Currents Weather Stations Pressure Air Temp Water Temp Dewpoint Dewpoint Depression Visibility Wind Speed Wind Dir Waves Ship Positions

MSC Bari

Last reported at 2017-Jan-16 07:28 UTC. Time now 2017-Jan-19 08:53 UTC.
Position N 01°09' E 103°44'.

Length 366 m; draft 15.9 m.

Type: Ship (hazmat cat A). MMSI: 636092188.

Date/timePositionNaut miles runAvg speedWind from/ knotsBaromVisibWave heightAir tempDewpointWater temp
2017-Jan-16 07:28N 01°09' E 103°44'6 6.6
2017-Jan-16 06:32N 01°14' E 103°47'3 2.6
2017-Jan-16 05:32N 01°16' E 103°46'0 0.0
2017-Jan-16 04:32N 01°16' E 103°46'0 0.0
2017-Jan-16 02:26N 01°16' E 103°46'0 0.0
2017-Jan-16 01:32N 01°16' E 103°46'0 0.0
2017-Jan-15 20:20N 01°16' E 103°46'0 0.0
2017-Jan-15 19:17N 01°16' E 103°46'0 0.0
2017-Jan-15 17:26N 01°16' E 103°46'0 0.0
2017-Jan-15 16:20N 01°16' E 103°46'0 0.0
2017-Jan-15 13:32N 01°16' E 103°46'0 0.0
2017-Jan-15 12:23N 01°16' E 103°46'0 0.0
2017-Jan-15 11:20N 01°16' E 103°46'0 0.0
2017-Jan-15 10:32N 01°16' E 103°46'0 0.0
2017-Jan-15 09:33N 01°16' E 103°46'3 2.7
2017-Jan-15 08:33N 01°14' E 103°47'7 7.0
2017-Jan-15 07:33N 01°14' E 103°54'89018.3
2017-Jan-13 07:00N 14°36' E 110°24'   020 / 201011.2 5.4 25.024.327.1
2017-Jan-10 03:33N 24°20' E 118°10'1010.0
2017-Jan-10 02:34N 24°26' E 118°02'1 0.5
2017-Jan-10 01:12N 24°27' E 118°01'0 0.0
2017-Jan-10 00:33N 24°27' E 118°01'0 0.0
2017-Jan-09 23:34N 24°27' E 118°01'0 0.0
2017-Jan-09 22:30N 24°27' E 118°01'0 0.0
2017-Jan-09 21:33N 24°27' E 118°01'0 0.0
2017-Jan-09 20:33N 24°27' E 118°01'0 0.0
2017-Jan-09 19:33N 24°27' E 118°01'0 0.0
2017-Jan-09 18:34N 24°27' E 118°01'0 0.0
2017-Jan-09 17:30N 24°27' E 118°01'0 0.0
2017-Jan-09 16:33N 24°27' E 118°01'0 0.0
2017-Jan-09 15:30N 24°27' E 118°01'0 0.0
2017-Jan-09 14:33N 24°27' E 118°01'0 0.0
2017-Jan-09 13:30N 24°27' E 118°01'0 0.0
2017-Jan-09 12:33N 24°27' E 118°01'0 0.0
2017-Jan-09 11:30N 24°27' E 118°01'0 0.0
2017-Jan-09 10:33N 24°27' E 118°01'3 3.5
2017-Jan-09 09:34N 24°25' E 118°05'1313.1
2017-Jan-09 08:32N 24°16' E 118°15'  
Track history (hours):
 
Tides and Currents Weather Stations Pressure Air Temp Water Temp Dewpoint Dewpoint Depression Visibility Wind Speed Wind Dir Waves Ship Positions

MSC Bari

Last reported at 2017-Jan-16 07:28 UTC. Time now 2017-Jan-19 08:53 UTC.
Position N 01°09' E 103°44'.

Length 366 m; draft 15.9 m.

Type: Ship (hazmat cat A). MMSI: 636092188.

Date/timePositionNaut miles runAvg speedWind from/ knotsBaromVisibWave heightAir tempDewpointWater temp
2017-Jan-16 07:28N 01°09' E 103°44'6 6.6
2017-Jan-16 06:32N 01°14' E 103°47'3 2.6
2017-Jan-16 05:32N 01°16' E 103°46'0 0.0
2017-Jan-16 04:32N 01°16' E 103°46'0 0.0
2017-Jan-16 02:26N 01°16' E 103°46'0 0.0
2017-Jan-16 01:32N 01°16' E 103°46'0 0.0
2017-Jan-15 20:20N 01°16' E 103°46'0 0.0
2017-Jan-15 19:17N 01°16' E 103°46'0 0.0
2017-Jan-15 17:26N 01°16' E 103°46'0 0.0
2017-Jan-15 16:20N 01°16' E 103°46'0 0.0
2017-Jan-15 13:32N 01°16' E 103°46'0 0.0
2017-Jan-15 12:23N 01°16' E 103°46'0 0.0
2017-Jan-15 11:20N 01°16' E 103°46'0 0.0
2017-Jan-15 10:32N 01°16' E 103°46'0 0.0
2017-Jan-15 09:33N 01°16' E 103°46'3 2.7
2017-Jan-15 08:33N 01°14' E 103°47'7 7.0
2017-Jan-15 07:33N 01°14' E 103°54'89018.3
2017-Jan-13 07:00N 14°36' E 110°24'   020 / 201011.2 5.4 25.024.327.1
2017-Jan-10 03:33N 24°20' E 118°10'1010.0
2017-Jan-10 02:34N 24°26' E 118°02'1 0.5
2017-Jan-10 01:12N 24°27' E 118°01'0 0.0
2017-Jan-10 00:33N 24°27' E 118°01'0 0.0
2017-Jan-09 23:34N 24°27' E 118°01'0 0.0
2017-Jan-09 22:30N 24°27' E 118°01'0 0.0
2017-Jan-09 21:33N 24°27' E 118°01'0 0.0
2017-Jan-09 20:33N 24°27' E 118°01'0 0.0
2017-Jan-09 19:33N 24°27' E 118°01'0 0.0
2017-Jan-09 18:34N 24°27' E 118°01'0 0.0
2017-Jan-09 17:30N 24°27' E 118°01'0 0.0
2017-Jan-09 16:33N 24°27' E 118°01'0 0.0
2017-Jan-09 15:30N 24°27' E 118°01'0 0.0
2017-Jan-09 14:33N 24°27' E 118°01'0 0.0
2017-Jan-09 13:30N 24°27' E 118°01'0 0.0
2017-Jan-09 12:33N 24°27' E 118°01'0 0.0
2017-Jan-09 11:30N 24°27' E 118°01'0 0.0
2017-Jan-09 10:33N 24°27' E 118°01'3 3.5
2017-Jan-09 09:34N 24°25' E 118°05'1313.1
2017-Jan-09 08:32N 24°16' E 118°15'  

Dump ship's entire track history